Time;durP1;ratioP1;P1;durP2;ratioP2;P2;SDS_P1;SDS_P2;PMS_P1;PMS_P2;Temp;Humidity;BMP_temperature;BMP_pressure;BME280_temperature;BME280_humidity;BME280_pressure;Samples;Min_cycle;Max_cycle;Signal;HPM_P1;HPM_P2
2022/07/22 00:01:46;;;;;;;21.67;20.47;;;20.10;99.90;;;;;;4970884;28;20462;-71
2022/07/22 00:04:13;;;;;;;20.00;18.67;;;20.10;99.90;;;;;;4970661;28;20456;-71
2022/07/22 00:06:39;;;;;;;20.30;19.00;;;20.00;99.90;;;;;;4970479;28;20447;-72
2022/07/22 00:09:06;;;;;;;21.87;20.50;;;19.90;99.90;;;;;;4970792;28;20440;-72
2022/07/22 00:11:33;;;;;;;21.13;19.70;;;19.80;99.90;;;;;;4970854;28;20452;-72
2022/07/22 00:14:01;;;;;;;22.50;21.20;;;19.90;99.90;;;;;;4970666;28;20519;-74
2022/07/22 00:16:28;;;;;;;20.87;19.67;;;19.90;99.90;;;;;;4970379;28;20498;-74
2022/07/22 00:18:54;;;;;;;23.60;21.70;;;19.80;99.90;;;;;;4970353;28;20651;-72
2022/07/22 00:21:21;;;;;;;23.73;22.27;;;19.80;99.90;;;;;;4970638;28;20459;-71
2022/07/22 00:23:48;;;;;;;19.70;18.50;;;19.80;99.90;;;;;;4970732;28;20786;-74
2022/07/22 00:26:15;;;;;;;20.30;18.80;;;19.80;99.90;;;;;;4970234;28;20455;-71
2022/07/22 00:28:41;;;;;;;21.30;19.90;;;19.70;99.90;;;;;;4970294;28;20462;-74
2022/07/22 00:31:09;;;;;;;20.40;19.00;;;19.60;99.90;;;;;;4970484;28;20443;-74
2022/07/22 00:33:36;;;;;;;23.47;21.87;;;19.60;99.90;;;;;;4970564;28;20841;-74
2022/07/22 00:36:03;;;;;;;22.33;20.77;;;19.60;99.90;;;;;;4970736;28;20499;-74
2022/07/22 00:38:30;;;;;;;22.77;21.47;;;19.60;99.90;;;;;;4970537;28;20486;-73
2022/07/22 00:40:57;;;;;;;22.77;21.37;;;19.50;99.90;;;;;;4970142;28;20483;-72
2022/07/22 00:43:23;;;;;;;21.17;19.77;;;19.40;99.90;;;;;;4973752;28;20455;-71
2022/07/22 00:45:50;;;;;;;22.80;21.40;;;19.30;99.90;;;;;;4973987;28;20447;-74
2022/07/22 00:48:18;;;;;;;22.70;21.20;;;19.30;99.90;;;;;;4974081;28;20456;-74
2022/07/22 00:50:46;;;;;;;23.60;22.10;;;19.30;99.90;;;;;;4973718;28;20448;-71
2022/07/22 00:53:12;;;;;;;23.83;22.10;;;19.30;99.90;;;;;;4973546;28;20458;-73
2022/07/22 00:55:39;;;;;;;23.73;22.10;;;19.20;99.90;;;;;;4973472;28;20455;-73
2022/07/22 00:58:06;;;;;;;23.83;22.40;;;19.20;99.90;;;;;;4973609;28;20856;-72
2022/07/22 01:00:33;;;;;;;23.40;22.10;;;19.20;99.90;;;;;;4973758;28;20459;-71
2022/07/22 01:02:59;;;;;;;23.13;21.80;;;19.10;99.90;;;;;;4973403;28;20459;-72
2022/07/22 01:05:27;;;;;;;24.60;23.00;;;19.00;99.90;;;;;;4973380;28;20459;-72
2022/07/22 01:07:54;;;;;;;22.47;21.07;;;19.00;99.90;;;;;;4973140;28;20448;-72
2022/07/22 01:10:21;;;;;;;22.40;21.03;;;19.00;99.90;;;;;;4973277;28;20455;-73
2022/07/22 01:12:48;;;;;;;20.77;19.57;;;19.00;99.90;;;;;;4973535;28;20444;-72
2022/07/22 01:15:15;;;;;;;23.50;21.70;;;19.00;99.90;;;;;;4973248;28;20448;-72
2022/07/22 01:17:41;;;;;;;24.00;22.13;;;19.00;99.90;;;;;;4972959;28;20487;-72
2022/07/22 01:20:10;;;;;;;24.23;22.63;;;18.90;99.90;;;;;;4972914;28;20457;-73
2022/07/22 01:22:37;;;;;;;22.87;21.50;;;18.90;99.90;;;;;;4973078;28;20456;-72
2022/07/22 01:25:04;;;;;;;22.70;21.10;;;18.90;99.90;;;;;;4973235;28;20456;-72
2022/07/22 01:27:31;;;;;;;23.37;21.87;;;18.90;99.90;;;;;;4973226;28;20789;-73
2022/07/22 01:29:58;;;;;;;23.40;21.87;;;18.90;99.90;;;;;;4972927;28;20458;-73
2022/07/22 01:32:25;;;;;;;23.37;21.63;;;18.90;99.90;;;;;;4973128;28;20452;-73
2022/07/22 01:34:52;;;;;;;23.27;21.83;;;18.90;99.90;;;;;;4972827;28;20972;-72
2022/07/22 01:37:20;;;;;;;23.13;21.67;;;18.90;99.90;;;;;;4973040;28;20495;-73
2022/07/22 01:39:47;;;;;;;23.13;21.53;;;18.90;99.90;;;;;;4972652;28;20491;-72
2022/07/22 01:42:13;;;;;;;23.23;21.80;;;18.90;99.90;;;;;;4972503;28;20455;-72
2022/07/22 01:44:40;;;;;;;23.57;22.00;;;18.90;99.90;;;;;;4972294;28;20459;-72
2022/07/22 01:47:07;;;;;;;22.60;21.17;;;18.80;99.90;;;;;;4972124;28;20463;-73
2022/07/22 01:49:34;;;;;;;24.53;23.03;;;18.80;99.90;;;;;;4972942;28;20464;-73
2022/07/22 01:52:01;;;;;;;23.23;21.67;;;18.80;99.90;;;;;;4972723;28;20459;-72
2022/07/22 01:54:29;;;;;;;23.10;21.70;;;18.80;99.90;;;;;;4971285;28;20834;-72
2022/07/22 01:56:56;;;;;;;23.53;22.13;;;18.70;99.90;;;;;;4972372;28;20492;-72
2022/07/22 01:59:23;;;;;;;23.43;22.03;;;18.70;99.90;;;;;;4972359;28;20456;-72
2022/07/22 02:01:49;;;;;;;24.83;23.10;;;18.60;99.90;;;;;;4972593;28;20451;-72
2022/07/22 02:04:16;;;;;;;24.57;22.67;;;18.60;99.90;;;;;;4972480;28;20463;-72
2022/07/22 02:06:43;;;;;;;23.50;22.00;;;18.50;99.90;;;;;;4972227;28;20454;-72
2022/07/22 02:09:10;;;;;;;24.43;22.80;;;18.40;99.90;;;;;;4972155;28;20447;-72
2022/07/22 02:11:38;;;;;;;24.47;23.03;;;18.30;99.90;;;;;;4972277;28;20456;-72
2022/07/22 02:14:04;;;;;;;22.93;21.53;;;18.30;99.90;;;;;;4972477;28;20464;-73
2022/07/22 02:16:31;;;;;;;24.00;22.40;;;18.20;99.90;;;;;;4972222;28;20467;-72
2022/07/22 02:18:58;;;;;;;25.07;23.47;;;18.20;99.90;;;;;;4971896;28;20464;-72
2022/07/22 02:21:25;;;;;;;26.80;24.80;;;18.20;99.90;;;;;;4972011;28;20448;-72
2022/07/22 02:23:52;;;;;;;25.77;23.47;;;18.20;99.90;;;;;;4971901;28;20452;-72
2022/07/22 02:26:19;;;;;;;26.40;24.03;;;18.10;99.90;;;;;;4972245;28;20977;-72
2022/07/22 02:28:47;;;;;;;23.57;22.07;;;18.00;99.90;;;;;;4971952;28;20451;-72
2022/07/22 02:31:14;;;;;;;24.70;23.20;;;18.00;99.90;;;;;;4971823;28;20463;-72
2022/07/22 02:33:40;;;;;;;24.63;23.13;;;18.00;99.90;;;;;;4971773;28;20452;-72
2022/07/22 02:36:07;;;;;;;26.03;24.30;;;18.00;99.90;;;;;;4971790;28;20460;-73
2022/07/22 02:38:34;;;;;;;26.20;24.40;;;18.00;99.90;;;;;;4971692;28;21018;-71
2022/07/22 02:41:01;;;;;;;27.03;25.20;;;17.90;99.90;;;;;;4971745;28;20494;-72
2022/07/22 02:43:28;;;;;;;26.23;24.33;;;17.80;99.90;;;;;;4971618;28;20452;-72
2022/07/22 02:45:56;;;;;;;25.90;24.20;;;17.80;99.90;;;;;;4971520;28;20896;-73
2022/07/22 02:48:22;;;;;;;26.57;24.83;;;17.80;99.90;;;;;;4971482;28;20945;-72
2022/07/22 02:50:49;;;;;;;27.60;25.40;;;17.80;99.90;;;;;;4971739;28;20458;-72
2022/07/22 02:53:16;;;;;;;26.90;24.90;;;17.70;99.90;;;;;;4971487;28;20456;-72
2022/07/22 02:55:43;;;;;;;28.63;26.73;;;17.60;99.90;;;;;;4971301;28;20451;-72
2022/07/22 02:58:10;;;;;;;26.50;24.47;;;17.60;99.90;;;;;;4971277;28;20577;-72
2022/07/22 03:00:38;;;;;;;27.30;25.20;;;17.50;99.90;;;;;;4971155;28;20458;-72
2022/07/22 03:03:06;;;;;;;27.20;25.07;;;17.60;99.90;;;;;;4971482;28;20479;-73
2022/07/22 03:05:33;;;;;;;25.67;23.67;;;17.60;99.90;;;;;;4971243;28;20451;-72
2022/07/22 03:08:01;;;;;;;29.00;26.40;;;17.50;99.90;;;;;;4971269;28;20524;-72
2022/07/22 03:10:28;;;;;;;29.60;27.60;;;17.40;99.90;;;;;;4971361;28;20460;-72
2022/07/22 03:12:54;;;;;;;27.23;25.13;;;17.40;99.90;;;;;;4971237;28;20543;-72
2022/07/22 03:15:21;;;;;;;28.43;26.30;;;17.40;99.90;;;;;;4971181;28;20455;-72
2022/07/22 03:17:48;;;;;;;26.57;24.57;;;17.30;99.90;;;;;;4971175;28;20853;-72
2022/07/22 03:20:16;;;;;;;28.40;26.50;;;17.30;99.90;;;;;;4971004;28;20826;-72
2022/07/22 03:22:42;;;;;;;28.37;26.10;;;17.20;99.90;;;;;;4971114;28;20455;-73
2022/07/22 03:25:09;;;;;;;29.60;27.30;;;17.20;99.90;;;;;;4971004;28;20455;-72
2022/07/22 03:27:36;;;;;;;29.10;26.90;;;17.20;99.90;;;;;;4970988;28;20456;-73
2022/07/22 03:30:04;;;;;;;27.80;25.60;;;17.20;99.90;;;;;;4971252;28;20463;-72
2022/07/22 03:32:30;;;;;;;28.13;26.23;;;17.30;99.90;;;;;;4970990;28;20458;-72
2022/07/22 03:34:57;;;;;;;26.33;24.30;;;17.30;99.90;;;;;;4970861;28;20447;-73
2022/07/22 03:37:25;;;;;;;28.67;26.50;;;17.20;99.90;;;;;;4970796;28;20483;-72
2022/07/22 03:39:52;;;;;;;29.50;27.13;;;17.20;99.90;;;;;;4970657;28;20484;-73
2022/07/22 03:42:18;;;;;;;29.83;27.53;;;17.20;99.90;;;;;;4971203;28;20451;-72
2022/07/22 03:44:46;;;;;;;30.07;27.93;;;17.20;99.90;;;;;;4970869;28;20942;-72
2022/07/22 03:47:13;;;;;;;31.03;28.77;;;17.20;99.90;;;;;;4970796;28;20452;-72
2022/07/22 03:49:40;;;;;;;28.07;26.10;;;17.20;99.90;;;;;;4970645;28;20839;-73
2022/07/22 03:52:06;;;;;;;30.07;27.97;;;17.20;99.90;;;;;;4970773;28;20459;-73
2022/07/22 03:54:35;;;;;;;29.10;27.03;;;17.20;99.90;;;;;;4971033;28;20796;-73
2022/07/22 03:57:01;;;;;;;28.47;26.47;;;17.20;99.90;;;;;;4970865;28;20456;-73
2022/07/22 03:59:28;;;;;;;28.43;26.13;;;17.20;99.90;;;;;;4970391;28;20456;-73
2022/07/22 04:01:55;;;;;;;28.03;26.33;;;17.30;99.90;;;;;;4970566;28;20857;-71
2022/07/22 04:04:21;;;;;;;30.83;28.33;;;17.30;99.90;;;;;;4970673;28;20478;-73
2022/07/22 04:06:51;;;;;;;28.90;27.00;;;17.30;99.90;;;;;;4970830;28;20447;-72
2022/07/22 04:09:17;;;;;;;29.57;27.47;;;17.40;99.90;;;;;;4970803;28;20884;-73
2022/07/22 04:11:46;;;;;;;29.17;26.63;;;17.40;99.90;;;;;;4970602;28;20860;-73
2022/07/22 04:14:13;;;;;;;29.10;26.60;;;17.40;99.90;;;;;;4970581;28;20455;-74
2022/07/22 04:16:39;;;;;;;29.17;27.17;;;17.50;99.90;;;;;;4971498;28;20459;-73
2022/07/22 04:19:06;;;;;;;30.03;27.27;;;17.50;99.90;;;;;;4974166;28;20899;-71
2022/07/22 04:21:33;;;;;;;28.67;26.50;;;17.60;99.90;;;;;;4974297;28;20458;-71
2022/07/22 04:23:59;;;;;;;27.83;25.77;;;17.70;99.90;;;;;;4974078;28;20455;-69
2022/07/22 04:26:26;;;;;;;30.13;27.87;;;17.80;99.90;;;;;;4973958;28;20813;-70
2022/07/22 04:28:54;;;;;;;29.63;27.13;;;17.80;99.90;;;;;;4973927;28;20459;-71
2022/07/22 04:31:21;;;;;;;28.00;25.73;;;17.80;99.90;;;;;;4974291;28;20458;-70
2022/07/22 04:33:48;;;;;;;30.00;27.90;;;18.10;99.90;;;;;;4974214;28;20452;-70
2022/07/22 04:36:15;;;;;;;27.63;25.63;;;;;;;;;;4973978;28;20807;-70
2022/07/22 04:38:42;;;;;;;27.40;25.17;;;18.10;99.90;;;;;;4973647;28;20483;-69
2022/07/22 04:41:09;;;;;;;31.60;28.90;;;18.10;99.90;;;;;;4973405;28;20479;-70
2022/07/22 04:43:35;;;;;;;27.70;25.70;;;18.30;99.90;;;;;;4973725;28;20459;-70
2022/07/22 04:46:05;;;;;;;27.63;25.53;;;19.70;99.90;;;;;;4973590;28;20466;-71
2022/07/22 04:48:32;;;;;;;25.13;23.53;;;19.90;99.90;;;;;;4967840;28;20566;-71
2022/07/22 04:51:00;;;;;;;26.20;24.53;;;19.60;99.90;;;;;;4960185;28;20464;-71
2022/07/22 04:53:27;;;;;;;24.63;23.13;;;20.10;99.90;;;;;;4956977;28;20498;-71
2022/07/22 04:55:54;;;;;;;26.07;23.90;;;20.50;99.90;;;;;;4963211;28;20460;-70
2022/07/22 04:58:20;;;;;;;24.90;23.20;;;20.90;99.90;;;;;;5015813;23;20495;-70
2022/07/22 05:00:47;;;;;;;25.10;23.10;;;21.20;99.90;;;;;;4974222;28;20451;-69
2022/07/22 05:03:15;;;;;;;23.20;21.50;;;21.60;99.90;;;;;;4970805;28;20467;-72
2022/07/22 05:05:42;;;;;;;25.90;23.67;;;21.80;99.90;;;;;;4963459;28;20460;-69
2022/07/22 05:08:09;;;;;;;26.73;24.70;;;21.90;99.90;;;;;;4954662;29;20449;-71
2022/07/22 05:10:35;;;;;;;24.27;22.40;;;22.20;99.90;;;;;;4954707;29;20531;-72
2022/07/22 05:13:02;;;;;;;24.77;22.93;;;22.60;99.90;;;;;;4954751;29;20512;-72
2022/07/22 05:15:29;;;;;;;26.47;24.60;;;22.70;99.90;;;;;;4954285;29;20960;-72
2022/07/22 05:17:55;;;;;;;23.97;21.87;;;23.00;99.90;;;;;;4954344;29;20693;-72
2022/07/22 05:20:23;;;;;;;24.40;22.77;;;23.50;99.90;;;;;;4954248;29;20464;-70
2022/07/22 05:22:50;;;;;;;24.70;23.17;;;23.70;99.90;;;;;;4954224;29;20461;-72
2022/07/22 05:25:17;;;;;;;25.30;23.23;;;24.00;99.90;;;;;;4954637;29;20464;-72
2022/07/22 05:27:51;;;;;;;23.10;21.47;;;23.80;99.90;;;;;;4954071;28;20449;-73
2022/07/22 05:30:17;;;;;;;24.20;22.47;;;24.10;99.90;;;;;;4954691;29;20542;-73
2022/07/22 05:32:44;;;;;;;26.43;24.50;;;24.40;99.90;;;;;;4954114;29;20957;-72
2022/07/22 05:35:11;;;;;;;24.70;23.10;;;24.40;99.90;;;;;;4953916;29;20849;-73
2022/07/22 05:37:39;;;;;;;24.57;22.77;;;24.50;99.90;;;;;;4954047;29;20508;-73
2022/07/22 05:40:07;;;;;;;23.23;21.83;;;24.60;99.90;;;;;;4953945;29;20457;-72
2022/07/22 05:42:34;;;;;;;23.53;21.97;;;24.70;99.90;;;;;;4954317;29;20457;-72
2022/07/22 05:45:01;;;;;;;24.90;22.97;;;25.00;99.90;;;;;;4954098;29;20833;-72
2022/07/22 05:47:27;;;;;;;23.10;21.67;;;25.30;99.90;;;;;;4953874;29;20460;-71
2022/07/22 05:49:54;;;;;;;25.50;24.00;;;25.60;99.90;;;;;;4953702;29;20650;-71
2022/07/22 05:52:21;;;;;;;23.70;22.20;;;25.70;99.90;;;;;;4953879;29;20456;-72
2022/07/22 05:54:50;;;;;;;24.50;22.90;;;25.70;99.90;;;;;;4955895;28;20468;-70
2022/07/22 05:57:16;;;;;;;24.73;23.23;;;25.90;99.90;;;;;;4961461;28;20978;-72
2022/07/22 05:59:43;;;;;;;24.67;22.90;;;25.80;99.90;;;;;;4953588;29;20500;-72
2022/07/22 06:02:10;;;;;;;23.77;22.17;;;26.10;99.90;;;;;;4953560;29;20483;-72
2022/07/22 06:04:36;;;;;;;24.77;23.20;;;26.50;99.90;;;;;;4953732;29;20452;-72
2022/07/22 06:07:06;;;;;;;23.13;21.27;;;26.60;99.90;;;;;;4953743;29;20460;-71
2022/07/22 06:09:33;;;;;;;23.83;22.33;;;26.80;99.90;;;;;;4953557;29;20468;-71
2022/07/22 06:12:01;;;;;;;23.10;21.60;;;27.10;99.40;;;;;;4953385;29;20449;-72
2022/07/22 06:14:27;;;;;;;24.60;23.00;;;27.30;99.30;;;;;;4967650;28;20468;-71
2022/07/22 06:16:54;;;;;;;26.37;24.87;;;27.30;98.40;;;;;;4987455;28;20446;-72
2022/07/22 06:19:21;;;;;;;24.33;22.83;;;27.60;97.70;;;;;;4972576;28;20494;-73
2022/07/22 06:21:47;;;;;;;23.13;21.60;;;27.50;97.00;;;;;;4972846;28;20447;-73
2022/07/22 06:24:14;;;;;;;25.00;23.27;;;27.30;98.20;;;;;;4988537;28;20458;-73
2022/07/22 06:26:41;;;;;;;25.03;23.50;;;27.50;97.50;;;;;;4972094;28;20859;-73
2022/07/22 06:29:09;;;;;;;24.67;23.07;;;27.70;96.90;;;;;;4965206;28;20538;-73
2022/07/22 06:31:36;;;;;;;24.67;23.17;;;27.80;96.60;;;;;;4985694;28;20455;-73
2022/07/22 06:34:05;;;;;;;25.40;23.57;;;28.00;96.20;;;;;;4992295;28;20457;-72
2022/07/22 06:36:32;;;;;;;23.53;22.13;;;28.10;95.60;;;;;;4992056;28;20494;-73
2022/07/22 06:38:59;;;;;;;24.67;23.10;;;28.40;95.00;;;;;;4991174;28;20490;-73
2022/07/22 06:41:26;;;;;;;23.60;22.13;;;28.80;94.10;;;;;;4991749;28;20455;-73
2022/07/22 06:43:53;;;;;;;22.87;21.40;;;28.70;93.90;;;;;;4974280;28;20460;-73
2022/07/22 06:46:21;;;;;;;23.07;21.77;;;28.80;93.70;;;;;;4972043;28;20462;-74
2022/07/22 06:48:47;;;;;;;24.43;22.83;;;28.60;94.30;;;;;;4972646;28;20459;-74
2022/07/22 06:51:14;;;;;;;22.93;21.47;;;29.10;93.30;;;;;;4972550;28;20474;-73
2022/07/22 06:53:41;;;;;;;23.13;21.77;;;29.40;93.10;;;;;;4972190;28;20969;-74
2022/07/22 06:56:08;;;;;;;24.60;23.00;;;29.80;91.90;;;;;;4965873;28;20480;-72
2022/07/22 06:58:35;;;;;;;23.37;22.03;;;30.40;91.10;;;;;;4958846;28;20500;-71
2022/07/22 07:01:02;;;;;;;23.70;22.30;;;30.90;89.70;;;;;;4953372;29;20483;-70
2022/07/22 07:03:30;;;;;;;24.07;22.67;;;31.00;89.90;;;;;;4952569;29;20533;-71
2022/07/22 07:05:56;;;;;;;24.70;23.17;;;31.60;86.70;;;;;;4952337;29;20452;-70
2022/07/22 07:08:23;;;;;;;22.53;21.23;;;31.60;85.60;;;;;;4944501;29;20459;-70
2022/07/22 07:10:50;;;;;;;22.77;21.57;;;31.70;86.40;;;;;;4952380;29;20483;-71
2022/07/22 07:13:16;;;;;;;24.53;22.80;;;31.80;84.90;;;;;;4952245;29;20461;-71
2022/07/22 07:15:44;;;;;;;23.13;21.63;;;31.50;85.70;;;;;;4952141;29;20440;-71
2022/07/22 07:18:10;;;;;;;24.77;23.00;;;31.70;86.00;;;;;;4951706;29;21133;-71
2022/07/22 07:20:38;;;;;;;23.10;21.77;;;31.80;84.40;;;;;;4951730;29;20460;-71
2022/07/22 07:23:05;;;;;;;25.20;20.80;;;32.00;83.10;;;;;;4951875;29;20459;-71
2022/07/22 07:25:32;;;;;;;24.00;22.50;;;32.10;83.00;;;;;;4951739;29;20456;-71
2022/07/22 07:27:59;;;;;;;24.03;22.83;;;32.70;80.10;;;;;;4951549;29;20460;-71
2022/07/22 07:30:26;;;;;;;23.70;22.40;;;32.60;80.30;;;;;;4951684;29;20686;-71
2022/07/22 07:32:52;;;;;;;23.43;21.93;;;32.50;80.40;;;;;;4951294;29;20464;-71
2022/07/22 07:35:19;;;;;;;24.53;23.13;;;32.50;80.20;;;;;;4951709;29;20452;-70
2022/07/22 07:37:48;;;;;;;24.17;22.77;;;31.60;83.30;;;;;;4951695;29;20463;-71
2022/07/22 07:40:15;;;;;;;25.70;24.27;;;31.90;82.10;;;;;;4951431;29;20496;-71
2022/07/22 07:42:42;;;;;;;24.73;23.13;;;32.30;80.40;;;;;;4951399;29;20483;-71
2022/07/22 07:45:09;;;;;;;23.63;22.30;;;32.30;80.70;;;;;;4951453;29;20907;-71
2022/07/22 07:47:36;;;;;;;25.73;24.33;;;32.80;80.00;;;;;;4951788;29;20444;-71
2022/07/22 07:50:04;;;;;;;25.17;23.57;;;33.20;77.90;;;;;;4951599;28;20452;-71
2022/07/22 07:52:31;;;;;;;24.33;22.80;;;33.40;77.10;;;;;;4955416;29;20456;-71
2022/07/22 07:54:59;;;;;;;22.37;21.30;;;32.90;78.10;;;;;;4955459;29;20930;-71
2022/07/22 07:57:25;;;;;;;23.80;22.50;;;33.50;77.30;;;;;;4955253;29;20892;-71
2022/07/22 07:59:52;;;;;;;24.40;22.43;;;33.60;76.30;;;;;;4955105;29;20905;-70
2022/07/22 08:02:19;;;;;;;23.87;22.50;;;34.10;75.10;;;;;;4955497;29;20468;-70
2022/07/22 08:04:45;;;;;;;24.40;22.63;;;34.60;74.00;;;;;;4955349;29;20459;-70
2022/07/22 08:07:12;;;;;;;24.53;23.23;;;34.80;72.30;;;;;;4955058;29;20452;-71
2022/07/22 08:09:39;;;;;;;25.93;24.43;;;35.10;70.90;;;;;;4954727;29;20452;-70
2022/07/22 08:12:08;;;;;;;23.83;22.47;;;35.00;70.30;;;;;;4955200;29;20459;-71
2022/07/22 08:14:35;;;;;;;24.67;23.27;;;34.80;71.00;;;;;;4955129;29;21005;-71
2022/07/22 08:17:02;;;;;;;24.20;22.80;;;34.70;70.90;;;;;;4955190;29;20953;-70
2022/07/22 08:19:29;;;;;;;23.50;22.20;;;34.60;71.40;;;;;;4954312;29;20488;-71
2022/07/22 08:21:56;;;;;;;24.23;22.90;;;34.40;71.20;;;;;;4954348;29;20452;-71
2022/07/22 08:24:22;;;;;;;22.63;21.33;;;34.90;70.30;;;;;;4954774;29;20464;-70
2022/07/22 08:26:49;;;;;;;23.37;22.03;;;35.10;69.20;;;;;;4955345;29;20475;-71
2022/07/22 08:29:17;;;;;;;23.50;22.30;;;35.30;67.80;;;;;;4954833;29;20459;-71
2022/07/22 08:31:44;;;;;;;23.93;22.63;;;35.10;68.40;;;;;;4954682;29;20452;-71
2022/07/22 08:34:11;;;;;;;23.17;21.70;;;35.10;67.30;;;;;;4955081;29;20837;-71
2022/07/22 08:36:37;;;;;;;24.10;22.53;;;34.80;69.60;;;;;;4954792;29;20460;-71
2022/07/22 08:39:05;;;;;;;23.90;22.50;;;35.00;69.00;;;;;;4954775;29;20492;-71
2022/07/22 08:41:36;;;;;;;24.60;23.30;;;35.50;67.10;;;;;;4954574;29;20459;-71
2022/07/22 08:44:03;;;;;;;23.53;22.33;;;35.60;66.20;;;;;;4955057;29;20460;-71
2022/07/22 08:46:31;;;;;;;25.33;23.93;;;35.70;64.90;;;;;;4954656;29;20452;-71
2022/07/22 08:49:00;;;;;;;25.70;24.17;;;35.60;65.70;;;;;;4954621;29;20451;-72
2022/07/22 08:51:28;;;;;;;23.37;22.07;;;36.10;64.70;;;;;;4954594;29;20456;-71
2022/07/22 08:53:55;;;;;;;24.70;23.20;;;36.20;63.80;;;;;;4954215;29;20460;-71
2022/07/22 08:56:22;;;;;;;24.67;23.37;;;35.90;64.10;;;;;;4946791;29;20452;-71
2022/07/22 08:58:48;;;;;;;24.80;23.40;;;35.80;65.00;;;;;;4954361;29;20503;-71
2022/07/22 09:01:17;;;;;;;24.30;22.80;;;36.20;63.60;;;;;;4954326;29;20460;-71
2022/07/22 09:03:49;;;;;;;24.23;22.83;;;36.30;62.90;;;;;;4953251;28;20965;-71
2022/07/22 09:06:16;;;;;;;25.67;24.20;;;36.10;63.30;;;;;;4954160;29;20458;-71
2022/07/22 09:08:54;;;;;;;24.90;23.70;;;36.40;63.00;;;;;;4954292;29;20455;-71
2022/07/22 09:11:23;;;;;;;24.00;22.60;;;36.40;62.30;;;;;;4954289;29;20467;-71
2022/07/22 09:13:49;;;;;;;25.07;23.77;;;36.50;62.00;;;;;;4954153;29;20472;-71
2022/07/22 09:16:16;;;;;;;24.50;23.30;;;36.40;61.60;;;;;;4954180;29;20501;-71
2022/07/22 09:18:50;;;;;;;23.30;22.10;;;36.90;61.70;;;;;;4954004;29;20467;-71
2022/07/22 09:21:17;;;;;;;22.47;21.27;;;37.40;59.50;;;;;;4954317;29;20445;-72
2022/07/22 09:23:45;;;;;;;25.73;24.20;;;38.20;58.20;;;;;;4954065;29;20820;-72
2022/07/22 09:26:30;;;;;;;23.77;22.53;;;38.80;56.70;;;;;;4953720;29;20449;-71
2022/07/22 09:28:58;;;;;;;23.77;22.57;;;38.20;56.90;;;;;;4953569;29;20459;-71
2022/07/22 09:31:26;;;;;;;23.10;21.60;;;37.70;57.30;;;;;;4953708;29;20453;-71
2022/07/22 09:33:54;;;;;;;24.00;22.90;;;37.50;59.10;;;;;;4953626;29;20966;-71
2022/07/22 09:36:21;;;;;;;24.37;23.07;;;37.60;58.00;;;;;;4953781;28;20588;-71
2022/07/22 09:38:48;;;;;;;23.93;22.73;;;37.00;58.70;;;;;;4953815;29;20989;-71
2022/07/22 09:41:15;;;;;;;24.53;23.23;;;37.70;58.20;;;;;;4953819;29;20448;-71
2022/07/22 09:43:42;;;;;;;22.37;21.20;;;38.30;56.30;;;;;;4953599;29;20452;-71
2022/07/22 09:46:09;;;;;;;24.03;22.90;;;38.30;55.20;;;;;;4953472;29;20463;-71
2022/07/22 09:48:37;;;;;;;21.23;20.17;;;38.50;54.70;;;;;;4953751;29;20461;-71
2022/07/22 09:51:06;;;;;;;21.00;20.00;;;38.50;55.20;;;;;;4953588;29;20456;-71
2022/07/22 09:53:34;;;;;;;22.37;21.20;;;37.50;55.90;;;;;;4953289;29;20942;-71
2022/07/22 09:56:03;;;;;;;24.57;23.17;;;37.60;56.40;;;;;;4953391;29;20876;-71
2022/07/22 09:58:31;;;;;;;25.20;24.07;;;36.90;56.60;;;;;;4953301;29;20739;-71
2022/07/22 10:01:00;;;;;;;23.50;22.30;;;35.80;58.40;;;;;;4953208;29;20492;-71
2022/07/22 10:03:28;;;;;;;25.27;24.10;;;36.10;58.90;;;;;;4952964;29;20457;-71
2022/07/22 10:05:56;;;;;;;23.50;22.30;;;37.10;57.50;;;;;;4953041;29;20452;-71
2022/07/22 10:08:26;;;;;;;24.13;23.00;;;37.60;55.70;;;;;;4952721;29;20460;-71
2022/07/22 10:10:54;;;;;;;22.27;21.07;;;38.60;54.70;;;;;;4952659;29;20480;-71
2022/07/22 10:13:21;;;;;;;21.73;20.73;;;38.40;53.80;;;;;;4952482;28;20452;-72
2022/07/22 10:15:48;;;;;;;22.57;21.47;;;38.40;54.60;;;;;;4952256;29;20779;-72
2022/07/22 10:18:17;;;;;;;22.40;21.40;;;38.80;54.20;;;;;;4952683;29;20448;-71
2022/07/22 10:20:44;;;;;;;23.77;22.67;;;38.90;53.80;;;;;;4952684;29;20492;-72
2022/07/22 10:23:12;;;;;;;23.57;22.30;;;39.80;52.70;;;;;;4952375;29;20947;-71
2022/07/22 10:25:54;;;;;;;23.70;22.63;;;40.30;51.00;;;;;;4952724;29;20483;-72
2022/07/22 10:28:23;;;;;;;24.33;23.07;;;40.90;49.30;;;;;;4952424;29;20444;-71
2022/07/22 10:30:50;;;;;;;22.53;21.63;;;41.20;48.40;;;;;;4952826;29;20452;-71
2022/07/22 10:33:19;;;;;;;22.97;21.73;;;40.60;48.20;;;;;;4952482;29;20452;-71
2022/07/22 10:35:57;;;;;;;24.13;23.03;;;40.90;48.40;;;;;;4952655;29;20456;-71
2022/07/22 10:38:25;;;;;;;23.97;22.97;;;40.30;48.90;;;;;;4952382;29;20519;-71
2022/07/22 10:40:55;;;;;;;22.40;21.30;;;40.80;48.00;;;;;;4952645;29;20495;-71
2022/07/22 10:43:24;;;;;;;24.93;23.83;;;41.00;48.00;;;;;;4952452;29;20460;-69
2022/07/22 10:45:53;;;;;;;25.00;23.63;;;41.00;47.60;;;;;;4952197;29;20453;-69
2022/07/22 10:48:22;;;;;;;22.83;21.83;;;40.70;48.00;;;;;;4950861;29;20537;-68
2022/07/22 10:50:54;;;;;;;22.97;21.77;;;40.30;48.30;;;;;;4952861;29;20459;-71
2022/07/22 10:53:24;;;;;;;23.10;22.03;;;40.70;47.30;;;;;;4952755;29;20456;-71
2022/07/22 10:56:04;;;;;;;22.30;21.20;;;39.80;49.30;;;;;;4953045;29;20920;-71
2022/07/22 10:59:09;;;;;;;22.87;21.70;;;40.20;49.20;;;;;;4952679;29;20488;-71
2022/07/22 11:01:38;;;;;;;24.00;22.83;;;40.70;47.10;;;;;;4943646;29;20506;-71
2022/07/22 11:04:13;;;;;;;24.37;23.27;;;40.50;47.00;;;;;;4952979;29;20448;-68
2022/07/22 11:06:41;;;;;;;23.13;21.80;;;40.90;47.00;;;;;;4952546;29;20459;-68
2022/07/22 11:09:09;;;;;;;22.77;21.77;;;40.30;47.90;;;;;;4952169;29;20447;-68
2022/07/22 11:11:42;;;;;;;22.80;21.70;;;39.70;47.90;;;;;;4952709;29;20459;-71
2022/07/22 11:14:14;;;;;;;24.07;22.97;;;39.30;48.50;;;;;;4952441;29;21018;-69
2022/07/22 11:16:40;;;;;;;24.03;22.87;;;39.30;48.40;;;;;;4952647;29;20457;-68
2022/07/22 11:19:07;;;;;;;23.57;22.47;;;39.40;48.00;;;;;;4952195;29;20966;-69
2022/07/22 11:21:36;;;;;;;22.87;21.87;;;39.40;47.90;;;;;;4952396;29;21002;-70
2022/07/22 11:24:05;;;;;;;22.87;21.80;;;39.70;48.20;;;;;;4952274;29;20467;-70
2022/07/22 11:26:41;;;;;;;23.70;22.60;;;40.50;47.60;;;;;;4952030;28;20452;-70
2022/07/22 11:29:09;;;;;;;24.80;23.50;;;41.50;45.90;;;;;;4952509;29;20447;-70
2022/07/22 11:31:36;;;;;;;24.30;23.10;;;41.00;45.60;;;;;;4952342;29;20452;-69
2022/07/22 11:34:08;;;;;;;24.10;23.00;;;41.70;44.80;;;;;;4952345;29;20525;-69
2022/07/22 11:36:36;;;;;;;23.10;21.90;;;40.80;45.60;;;;;;4950305;29;20887;-70
2022/07/22 11:39:04;;;;;;;24.37;23.07;;;41.20;45.40;;;;;;4952400;29;20507;-70
2022/07/22 11:41:32;;;;;;;24.63;23.53;;;41.20;45.30;;;;;;4952197;29;20504;-70
2022/07/22 11:44:00;;;;;;;22.30;21.30;;;40.00;46.60;;;;;;4951984;29;21037;-69
2022/07/22 11:46:28;;;;;;;23.53;22.40;;;40.00;46.50;;;;;;4952148;29;20459;-70
2022/07/22 11:48:56;;;;;;;23.37;22.27;;;40.20;46.10;;;;;;4952275;29;21097;-69
2022/07/22 11:51:29;;;;;;;23.30;22.30;;;39.60;46.50;;;;;;4951888;29;20947;-69
2022/07/22 11:53:56;;;;;;;23.33;22.23;;;39.90;46.40;;;;;;4952095;29;20476;-71
2022/07/22 11:56:23;;;;;;;23.83;22.50;;;40.20;46.30;;;;;;4951800;29;20457;-69
2022/07/22 11:58:53;;;;;;;24.07;22.97;;;39.90;45.70;;;;;;4952032;29;20488;-69
2022/07/22 12:01:24;;;;;;;23.17;21.80;;;39.00;46.20;;;;;;4951899;29;20578;-71
2022/07/22 12:03:52;;;;;;;23.13;21.97;;;38.40;47.50;;;;;;4951776;29;20452;-71
2022/07/22 12:06:21;;;;;;;22.20;21.20;;;38.30;48.20;;;;;;4952243;29;20459;-71
2022/07/22 12:08:50;;;;;;;23.37;22.27;;;38.00;48.20;;;;;;4952143;29;20460;-71
2022/07/22 12:11:18;;;;;;;23.57;22.17;;;38.00;48.20;;;;;;4951718;29;20943;-71
2022/07/22 12:13:46;;;;;;;23.80;22.70;;;37.70;48.20;;;;;;4952116;29;20452;-71
2022/07/22 12:16:23;;;;;;;23.57;22.40;;;37.60;48.10;;;;;;4952046;29;20444;-71
2022/07/22 12:18:55;;;;;;;24.73;23.60;;;38.40;47.40;;;;;;4952079;29;20475;-71
2022/07/22 12:21:23;;;;;;;22.43;21.30;;;39.40;46.30;;;;;;4951507;29;20577;-69
2022/07/22 12:23:52;;;;;;;21.50;20.57;;;39.30;45.60;;;;;;4951713;29;20452;-72
2022/07/22 12:26:19;;;;;;;23.00;21.80;;;38.60;44.30;;;;;;4952296;29;20520;-70
2022/07/22 12:28:46;;;;;;;23.10;22.00;;;37.60;46.00;;;;;;4951971;29;20448;-70
2022/07/22 12:31:12;;;;;;;22.73;21.53;;;37.50;46.10;;;;;;4951622;29;20825;-70